Time;durP1;ratioP1;P1;durP2;ratioP2;P2;SDS_P1;SDS_P2;PMS_P1;PMS_P2;Temp;Humidity;BMP_temperature;BMP_pressure;BME280_temperature;BME280_humidity;BME280_pressure;Samples;Min_cycle;Max_cycle;Signal;HPM_P1;HPM_P2
2022/02/21 00:00:17;;;;;;;4.63;3.57;;;;;;;5.05;60.07;99546.08;1716738;81;20974;-61
2022/02/21 00:02:46;;;;;;;6.20;4.37;;;;;;;5.09;60.18;99534.17;1731117;81;21011;-61
2022/02/21 00:05:14;;;;;;;6.40;3.07;;;;;;;5.12;60.07;99536.45;1727363;81;20967;-62
2022/02/21 00:07:44;;;;;;;5.33;4.27;;;;;;;5.12;60.05;99535.13;1728820;81;21512;-62
2022/02/21 00:10:15;;;;;;;5.57;4.23;;;;;;;5.15;60.11;99537.43;1736309;81;20966;-62
2022/02/21 00:12:44;;;;;;;7.37;4.30;;;;;;;5.13;60.32;99536.78;1742984;81;20971;-62
2022/02/21 00:15:17;;;;;;;4.63;3.90;;;;;;;5.11;60.39;99535.32;1740123;81;21124;-62
2022/02/21 00:17:45;;;;;;;5.67;4.00;;;;;;;5.08;60.80;99543.08;1725776;81;21586;-64
2022/02/21 00:20:12;;;;;;;7.40;4.63;;;;;;;5.05;60.80;99547.40;1740553;81;21002;-61
2022/02/21 00:22:38;;;;;;;4.03;3.27;;;;;;;4.99;61.07;99544.95;1693522;82;20984;-61
2022/02/21 00:25:07;;;;;;;8.30;4.33;;;;;;;4.98;61.17;99555.17;1718550;81;21035;-61
2022/02/21 00:27:33;;;;;;;3.60;3.23;;;;;;;4.97;61.37;99553.54;1718479;81;21105;-61
2022/02/21 00:30:01;;;;;;;4.75;3.87;;;;;;;4.95;61.69;99558.14;1727140;81;21549;-66
2022/02/21 00:32:28;;;;;;;7.50;4.10;;;;;;;4.92;61.86;99551.91;1723560;81;21068;-63
2022/02/21 00:34:54;;;;;;;4.73;3.97;;;;;;;4.92;61.91;99553.73;1727293;81;21000;-62
2022/02/21 00:37:21;;;;;;;6.03;4.10;;;;;;;4.94;62.08;99550.41;1727327;81;21095;-63
2022/02/21 00:39:47;;;;;;;6.08;3.45;;;;;;;4.93;62.23;99553.53;1725967;81;21092;-62
2022/02/21 00:42:21;;;;;;;3.80;3.50;;;;;;;4.94;62.41;99541.17;1728722;83;20961;-60
2022/02/21 00:44:47;;;;;;;5.67;4.20;;;;;;;4.94;62.50;99545.13;1712378;81;21028;-61
2022/02/21 00:47:13;;;;;;;4.60;3.80;;;;;;;4.92;62.60;99537.38;1728764;82;21497;-61
2022/02/21 00:49:39;;;;;;;3.20;2.75;;;;;;;4.94;62.68;99540.67;1724741;82;21024;-60
2022/02/21 00:52:06;;;;;;;4.97;3.08;;;;;;;5.01;62.48;99539.47;1727535;82;21029;-60
2022/02/21 00:54:32;;;;;;;5.30;4.13;;;;;;;5.05;62.50;99528.91;1723850;82;21009;-61
2022/02/21 00:56:59;;;;;;;6.93;3.87;;;;;;;5.01;62.62;99525.78;1704736;82;21089;-60
2022/02/21 00:59:25;;;;;;;5.92;4.25;;;;;;;4.92;62.95;99529.45;1695123;83;21034;-62
2022/02/21 01:01:52;;;;;;;9.25;4.35;;;;;;;4.52;63.02;99476.30;1700460;83;21540;-60
2022/02/21 01:04:19;;;;;;;4.07;3.77;;;;;;;4.78;63.23;99528.33;1700976;83;21641;-63
2022/02/21 01:06:45;;;;;;;3.50;3.27;;;;;;;4.71;63.38;99527.87;1696054;83;21552;-62
2022/02/21 01:09:11;;;;;;;4.33;3.72;;;;;;;4.63;63.57;99524.76;1694986;83;21014;-60
2022/02/21 01:11:37;;;;;;;4.28;3.72;;;;;;;4.58;64.01;99532.38;1703979;82;20993;-62
2022/02/21 01:14:04;;;;;;;4.17;3.77;;;;;;;4.51;64.10;99526.13;1727930;82;21487;-61
2022/02/21 01:16:32;;;;;;;4.07;3.67;;;;;;;4.42;64.48;99528.77;1734718;82;21049;-63
2022/02/21 01:18:58;;;;;;;;;;;;;;;4.36;64.75;99533.91;1712305;82;21029;-62
2022/02/21 01:21:25;;;;;;;5.43;4.07;;;;;;;4.33;65.01;99535.55;1723602;82;20121;-62
2022/02/21 01:23:53;;;;;;;4.57;4.17;;;;;;;4.24;65.53;99534.25;1700656;82;21042;-62
2022/02/21 01:26:22;;;;;;;6.03;4.00;;;;;;;4.18;65.68;99530.97;1689347;83;21130;-61
2022/02/21 01:28:49;;;;;;;3.60;3.30;;;;;;;4.20;65.75;99529.46;1688004;83;21115;-62
2022/02/21 01:31:15;;;;;;;6.72;3.55;;;;;;;4.28;65.88;99525.52;1678565;83;21066;-62
2022/02/21 01:33:41;;;;;;;4.80;4.15;;;;;;;4.31;66.09;99518.56;1664639;84;21021;-61
2022/02/21 01:36:07;;;;;;;4.08;3.67;;;;;;;4.27;66.41;99519.39;1683948;84;21109;-61
2022/02/21 01:38:33;;;;;;;4.53;4.12;;;;;;;4.20;66.98;99515.80;1651759;85;21085;-62
2022/02/21 01:40:59;;;;;;;4.30;3.90;;;;;;;4.13;67.19;99511.36;1678993;84;21069;-62
2022/02/21 01:43:26;;;;;;;4.03;3.40;;;;;;;4.06;67.68;99517.28;1677779;84;21018;-61
2022/02/21 01:45:51;;;;;;;5.42;3.77;;;;;;;3.99;68.04;99520.24;1645717;85;21561;-62
2022/02/21 01:48:18;;;;;;;5.12;3.65;;;;;;;3.96;68.39;99517.95;1660322;85;21534;-61
2022/02/21 01:50:44;;;;;;;6.40;4.10;;;;;;;3.93;68.82;99512.19;1636032;86;21677;-62
2022/02/21 01:53:11;;;;;;;3.98;3.33;;;;;;;3.86;68.90;99504.95;1643618;86;21264;-61
2022/02/21 01:55:39;;;;;;;4.67;3.80;;;;;;;3.82;69.43;99504.11;1643798;85;21610;-61
2022/02/21 01:58:06;;;;;;;3.60;3.30;;;;;;;3.87;69.45;99510.53;1646297;85;20978;-63
2022/02/21 02:00:33;;;;;;;4.80;4.17;;;;;;;3.92;69.27;99510.53;1653280;84;21030;-61
2022/02/21 02:03:01;;;;;;;5.57;3.70;;;;;;;3.91;69.34;99503.13;1656531;86;21054;-63
2022/02/21 02:05:29;;;;;;;7.00;4.10;;;;;;;3.85;69.49;99501.97;1673842;84;21057;-61
2022/02/21 02:07:55;;;;;;;4.70;3.67;;;;;;;3.83;69.55;99499.19;1702596;83;21000;-61
2022/02/21 02:10:22;;;;;;;6.97;4.05;;;;;;;3.83;69.63;99493.91;1673503;84;21027;-61
2022/02/21 02:12:49;;;;;;;4.57;4.07;;;;;;;3.83;69.72;99489.95;1709137;81;21077;-61
2022/02/21 02:15:18;;;;;;;;;;;;;;;3.79;69.76;99494.73;1661108;85;21461;-61
2022/02/21 02:17:45;;;;;;;4.10;3.70;;;;;;;3.77;70.00;99495.86;1655071;85;20193;-61
2022/02/21 02:20:14;;;;;;;5.67;4.40;;;;;;;3.67;70.00;99487.66;1639414;86;21079;-62
2022/02/21 02:22:41;;;;;;;3.87;3.43;;;;;;;3.65;69.98;99494.06;1668711;84;21081;-61
2022/02/21 02:25:09;;;;;;;5.10;4.33;;;;;;;3.70;70.29;99494.40;1673906;84;21065;-61
2022/02/21 02:27:35;;;;;;;5.13;3.13;;;;;;;3.76;70.03;99497.69;1683731;84;21089;-62
2022/02/21 02:30:03;;;;;;;6.03;3.62;;;;;;;3.81;69.93;99494.57;1689008;84;21057;-63
2022/02/21 02:32:30;;;;;;;6.47;4.63;;;;;;;3.81;70.10;99503.30;1719861;82;21552;-62
2022/02/21 02:34:56;;;;;;;4.90;3.87;;;;;;;3.75;70.20;99494.73;1710079;82;21522;-61
2022/02/21 02:37:25;;;;;;;6.67;4.47;;;;;;;3.68;70.36;99497.70;1682037;84;21132;-61
2022/02/21 02:39:52;;;;;;;6.77;5.00;;;;;;;3.61;70.71;99500.65;1680749;84;21065;-60
2022/02/21 02:42:19;;;;;;;4.87;4.47;;;;;;;3.54;70.88;99500.47;1680289;84;21041;-62
2022/02/21 02:44:45;;;;;;;6.90;4.40;;;;;;;3.49;70.95;99509.38;1669816;84;21122;-61
2022/02/21 02:47:13;;;;;;;5.45;4.67;;;;;;;3.45;71.14;99498.84;1673628;84;21133;-62
2022/02/21 02:49:40;;;;;;;9.37;5.00;;;;;;;3.45;71.15;99499.65;1679746;84;21552;-62
2022/02/21 02:52:08;;;;;;;7.30;4.43;;;;;;;3.52;71.27;99494.54;1713739;82;21203;-61
2022/02/21 02:54:36;;;;;;;5.43;4.93;;;;;;;3.56;71.22;99495.88;1719749;82;21245;-60
2022/02/21 02:57:05;;;;;;;7.83;4.93;;;;;;;3.56;71.22;99484.50;1722809;82;20998;-61
2022/02/21 02:59:32;;;;;;;5.27;4.57;;;;;;;3.49;71.60;99480.39;1720758;82;21002;-60
2022/02/21 03:01:58;;;;;;;6.37;4.42;;;;;;;3.45;72.00;99485.66;1733928;82;20999;-62
2022/02/21 03:04:24;;;;;;;6.22;4.97;;;;;;;3.39;72.42;99476.60;1716757;82;20959;-63
2022/02/21 03:06:50;;;;;;;5.65;4.95;;;;;;;3.35;72.44;99477.08;1715710;82;21077;-63
2022/02/21 03:09:17;;;;;;;4.58;4.20;;;;;;;3.29;72.72;99474.09;1678666;84;21043;-61
2022/02/21 03:11:43;;;;;;;5.87;4.08;;;;;;;3.35;72.73;99472.62;1684385;84;21053;-61
2022/02/21 03:14:10;;;;;;;4.42;3.80;;;;;;;3.43;72.63;99479.73;1692239;84;21102;-61
2022/02/21 03:16:37;;;;;;;5.87;4.93;;;;;;;3.42;72.80;99471.48;1723550;83;21061;-63
2022/02/21 03:19:03;;;;;;;5.47;4.75;;;;;;;3.36;72.78;99471.65;1724613;82;21027;-65
2022/02/21 03:21:30;;;;;;;4.75;4.08;;;;;;;3.30;73.14;99462.58;1683762;84;21027;-62
2022/02/21 03:23:57;;;;;;;5.50;5.00;;;;;;;3.26;73.36;99466.53;1692723;82;20997;-67
2022/02/21 03:26:22;;;;;;;7.92;6.28;;;;;;;3.23;73.41;99463.40;1692484;84;21095;-60
2022/02/21 03:28:49;;;;;;;8.25;5.22;;;;;;;3.23;73.69;99461.58;1688944;84;21018;-63
2022/02/21 03:31:16;;;;;;;8.03;5.78;;;;;;;3.30;73.66;99453.87;1693017;84;22008;-61
2022/02/21 03:33:43;;;;;;;4.77;4.47;;;;;;;3.29;73.68;99446.94;1691324;84;21018;-61
2022/02/21 03:36:10;;;;;;;6.27;4.70;;;;;;;3.23;73.81;99444.46;1719516;82;21093;-60
2022/02/21 03:38:37;;;;;;;5.73;4.70;;;;;;;3.17;74.13;99443.80;1713089;82;21048;-61
2022/02/21 03:41:03;;;;;;;5.83;5.22;;;;;;;3.15;74.20;99445.78;1712801;83;20982;-61
2022/02/21 03:43:31;;;;;;;6.37;4.70;;;;;;;3.20;74.28;99434.74;1698038;83;21111;-61
2022/02/21 03:45:57;;;;;;;5.40;4.90;;;;;;;3.26;74.06;99432.30;1724256;81;21004;-61
2022/02/21 03:48:23;;;;;;;5.70;5.12;;;;;;;3.25;74.11;99439.04;1737818;81;21583;-61
2022/02/21 03:50:50;;;;;;;6.67;5.58;;;;;;;3.21;74.13;99442.48;1732647;81;21015;-61
2022/02/21 03:53:16;;;;;;;12.65;7.37;;;;;;;3.18;74.32;99440.67;1692285;83;21583;-61
2022/02/21 03:55:43;;;;;;;7.67;6.78;;;;;;;3.15;74.18;99437.87;1686614;83;21048;-62
2022/02/21 03:58:11;;;;;;;13.00;9.40;;;;;;;3.12;74.41;99433.73;1701369;83;21754;-61
2022/02/21 04:00:37;;;;;;;15.43;9.73;;;;;;;3.15;74.25;99430.48;1694213;83;21652;-62
2022/02/21 04:03:03;;;;;;;12.53;9.58;;;;;;;3.17;74.21;99433.27;1708501;82;21057;-63
2022/02/21 04:05:29;;;;;;;13.38;9.75;;;;;;;3.14;74.32;99423.55;1704877;83;21573;-61
2022/02/21 04:07:56;;;;;;;12.67;9.50;;;;;;;3.01;74.97;99431.41;1701758;82;20990;-61
2022/02/21 04:10:22;;;;;;;14.13;10.95;;;;;;;2.92;74.76;99425.83;1742458;81;20993;-63
2022/02/21 04:12:48;;;;;;;16.27;10.60;;;;;;;2.81;75.25;99420.37;1751167;81;21037;-63
2022/02/21 04:15:15;;;;;;;14.55;10.43;;;;;;;2.85;75.11;99419.05;1738844;81;20962;-62
2022/02/21 04:17:45;;;;;;;16.35;10.13;;;;;;;2.86;75.03;99423.34;1746857;81;21049;-61
2022/02/21 04:20:16;;;;;;;15.17;11.50;;;;;;;2.77;75.46;99423.46;1747257;81;21067;-66
2022/02/21 04:22:43;;;;;;;14.17;10.57;;;;;;;2.69;75.59;99416.38;1680763;84;21007;-61
2022/02/21 04:25:11;;;;;;;15.90;11.33;;;;;;;2.57;76.12;99408.45;1712894;83;21026;-61
2022/02/21 04:27:52;;;;;;;15.23;10.17;;;;;;;2.62;75.90;99410.09;1751830;81;21022;-62
2022/02/21 04:30:24;;;;;;;16.50;11.53;;;;;;;2.62;75.96;99401.73;1744161;81;20990;-61
2022/02/21 04:32:52;;;;;;;15.43;11.93;;;;;;;2.61;75.77;99397.44;1751243;81;20974;-61
2022/02/21 04:35:21;;;;;;;16.33;12.70;;;;;;;2.51;76.17;99396.27;1748624;80;21021;-61
2022/02/21 04:37:48;;;;;;;12.23;10.40;;;;;;;2.43;76.49;99386.20;1732488;81;21053;-62
2022/02/21 04:40:18;;;;;;;14.87;10.23;;;;;;;2.41;76.78;99381.59;1746928;81;20919;-62
2022/02/21 04:42:44;;;;;;;12.60;10.37;;;;;;;2.43;76.67;99384.41;1742982;81;20950;-62
2022/02/21 04:45:10;;;;;;;13.83;10.53;;;;;;;2.45;76.57;99378.97;1748296;81;21001;-60
2022/02/21 04:47:38;;;;;;;11.68;9.40;;;;;;;2.39;76.63;99374.34;1751624;81;21526;-63
2022/02/21 04:50:07;;;;;;;15.50;10.13;;;;;;;2.32;76.91;99368.42;1649130;84;21053;-64
2022/02/21 04:52:35;;;;;;;13.53;9.63;;;;;;;2.36;76.89;99371.55;1746500;81;20975;-62
2022/02/21 04:55:04;;;;;;;12.60;9.13;;;;;;;2.48;76.61;99380.79;1750080;81;21021;-62
2022/02/21 04:57:32;;;;;;;11.67;9.10;;;;;;;2.49;76.48;99377.19;1745873;81;20969;-62
2022/02/21 04:59:59;;;;;;;;;;;;;;;2.48;76.37;99370.27;1745139;81;21049;-62
2022/02/21 05:02:25;;;;;;;13.77;8.70;;;;;;;2.45;76.59;99378.97;1740549;81;20207;-64
2022/02/21 05:04:52;;;;;;;12.53;8.53;;;;;;;2.40;76.71;99371.56;1710804;83;21057;-61
2022/02/21 05:07:19;;;;;;;12.63;9.20;;;;;;;2.52;76.62;99373.41;1715528;83;21057;-61
2022/02/21 05:09:45;;;;;;;14.60;8.90;;;;;;;2.63;76.11;99372.29;1754531;81;20993;-66
2022/02/21 05:12:11;;;;;;;11.12;8.30;;;;;;;2.66;75.92;99378.56;1751060;81;21038;-66
2022/02/21 05:14:38;;;;;;;13.22;8.85;;;;;;;2.62;75.83;99374.58;1752225;81;21147;-65
2022/02/21 05:17:06;;;;;;;10.05;9.05;;;;;;;2.55;76.06;99377.55;1674545;84;21112;-66
2022/02/21 05:19:35;;;;;;;14.17;8.40;;;;;;;2.52;76.10;99371.62;1675407;83;21068;-66
2022/02/21 05:22:02;;;;;;;10.33;8.43;;;;;;;2.63;75.76;99367.03;1745973;81;21097;-67
2022/02/21 05:24:28;;;;;;;15.00;9.40;;;;;;;2.66;75.54;99362.77;1740287;81;21050;-65
2022/02/21 05:26:55;;;;;;;11.22;7.90;;;;;;;2.62;75.56;99368.00;1744519;81;21137;-66
2022/02/21 05:29:21;;;;;;;11.67;8.90;;;;;;;2.58;75.77;99364.05;1748965;81;21040;-67
2022/02/21 05:31:48;;;;;;;14.23;9.30;;;;;;;2.63;75.71;99369.16;1750152;81;21045;-65
2022/02/21 05:34:14;;;;;;;11.33;9.03;;;;;;;2.70;75.33;99365.41;1749153;81;21077;-71
2022/02/21 05:36:41;;;;;;;15.78;10.50;;;;;;;2.48;75.12;99321.61;1740410;81;21049;-66
2022/02/21 05:39:07;;;;;;;12.93;9.98;;;;;;;2.72;74.92;99362.12;1743960;81;21004;-68
2022/02/21 05:41:33;;;;;;;14.28;9.25;;;;;;;2.72;74.92;99362.12;1707018;82;21017;-68
2022/02/21 05:44:00;;;;;;;11.95;8.75;;;;;;;2.78;74.82;99358.83;1709083;82;20969;-66
2022/02/21 05:46:26;;;;;;;13.40;9.37;;;;;;;2.91;74.51;99355.23;1713055;82;20931;-66
2022/02/21 05:48:52;;;;;;;12.73;9.48;;;;;;;3.04;73.90;99352.63;1722966;82;20978;-66
2022/02/21 05:51:18;;;;;;;16.40;10.35;;;;;;;3.07;73.85;99358.38;1705983;82;21072;-66
2022/02/21 05:53:47;;;;;;;15.55;10.48;;;;;;;3.05;73.28;99355.09;1710928;82;21533;-68
2022/02/21 05:56:14;;;;;;;13.60;10.30;;;;;;;3.07;73.24;99353.59;1712093;82;20988;-65
2022/02/21 05:58:41;;;;;;;13.50;9.53;;;;;;;3.11;72.87;99347.03;1723404;82;21018;-65
2022/02/21 06:01:07;;;;;;;16.40;8.43;;;;;;;3.23;72.12;99343.56;1721064;82;21031;-66
2022/02/21 06:03:33;;;;;;;13.70;8.88;;;;;;;3.36;71.88;99332.03;1710196;82;21635;-65
2022/02/21 06:05:59;;;;;;;12.07;8.53;;;;;;;3.42;71.15;99323.96;1706367;82;21529;-65
2022/02/21 06:08:26;;;;;;;;;;;;;;;3.44;70.55;99327.25;1718985;82;21074;-65
2022/02/21 06:10:52;;;;;;;16.53;8.80;;;;;;;3.50;70.40;99326.09;1707599;82;20101;-62
2022/02/21 06:13:18;;;;;;;12.03;8.03;;;;;;;3.56;70.16;99313.22;1708491;83;21577;-66
2022/02/21 06:15:44;;;;;;;8.50;7.47;;;;;;;3.75;69.24;99310.23;1714623;82;21382;-63
2022/02/21 06:18:10;;;;;;;9.95;8.53;;;;;;;3.95;68.96;99316.41;1708281;82;21099;-65
2022/02/21 06:20:36;;;;;;;14.60;8.28;;;;;;;4.07;68.37;99301.88;1708813;82;21089;-63
2022/02/21 06:23:03;;;;;;;11.03;8.78;;;;;;;4.15;67.45;99302.33;1744536;81;20969;-65
2022/02/21 06:25:29;;;;;;;15.80;8.98;;;;;;;4.15;67.03;99304.47;1733593;81;22291;-68
2022/02/21 06:27:55;;;;;;;16.60;8.75;;;;;;;4.17;66.72;99293.25;1749004;81;21037;-64
2022/02/21 06:30:21;;;;;;;13.00;9.25;;;;;;;4.17;66.55;99293.75;1745619;80;21069;-68
2022/02/21 06:32:47;;;;;;;14.83;9.33;;;;;;;4.24;66.55;99291.56;1747075;81;21073;-66
2022/02/21 06:35:14;;;;;;;18.98;8.73;;;;;;;4.22;66.02;99275.56;1734958;81;21105;-66
2022/02/21 06:37:42;;;;;;;;;;;;;;;4.39;65.67;99275.82;1753139;81;20990;-66
2022/02/21 06:40:11;;;;;;;16.83;7.53;;;;;;;4.42;65.36;99284.69;1746154;81;20118;-66
2022/02/21 06:42:39;;;;;;;11.57;8.47;;;;;;;4.56;64.81;99268.63;1744614;81;21112;-67
2022/02/21 06:45:08;;;;;;;11.23;7.97;;;;;;;4.60;64.33;99276.51;1736633;81;20972;-66
2022/02/21 06:47:34;;;;;;;14.93;8.13;;;;;;;4.63;64.25;99277.96;1747769;81;21060;-70
2022/02/21 06:50:04;;;;;;;12.28;7.80;;;;;;;4.62;63.88;99278.97;1749440;81;21010;-71
2022/02/21 06:52:30;;;;;;;10.73;7.50;;;;;;;4.62;63.89;99275.83;1747287;81;21480;-72
2022/02/21 06:54:56;;;;;;;11.57;7.62;;;;;;;4.63;63.38;99270.05;1749116;81;21082;-63
2022/02/21 06:57:23;;;;;;;11.48;7.75;;;;;;;4.61;63.22;99278.64;1705723;83;21098;-71
2022/02/21 06:59:49;;;;;;;15.07;6.57;;;;;;;4.61;63.11;99269.40;1707414;83;21524;-72
2022/02/21 07:02:16;;;;;;;9.88;7.10;;;;;;;4.61;63.00;99276.81;1708212;83;21041;-69
2022/02/21 07:04:42;;;;;;;;;;;;;;;4.63;62.84;99275.32;1709543;83;21098;-71
2022/02/21 07:07:09;;;;;;;8.73;5.30;;;;;;;4.66;62.55;99271.02;1700893;83;20145;-69
2022/02/21 07:09:35;;;;;;;6.28;5.37;;;;;;;4.65;62.55;99266.73;1705043;83;21115;-72
2022/02/21 07:12:02;;;;;;;8.13;6.40;;;;;;;4.70;62.23;99263.06;1705479;83;21565;-70
2022/02/21 07:14:29;;;;;;;13.10;6.20;;;;;;;4.72;61.93;99267.67;1704715;83;21029;-70
2022/02/21 07:16:55;;;;;;;9.85;5.90;;;;;;;4.76;62.05;99261.03;1706324;83;21089;-69
2022/02/21 07:19:21;;;;;;;6.85;5.97;;;;;;;4.78;61.68;99264.31;1704770;83;21029;-69
2022/02/21 07:21:48;;;;;;;8.45;6.00;;;;;;;4.80;61.28;99262.83;1706669;83;21565;-71
2022/02/21 07:24:15;;;;;;;;;;;;;;;4.84;61.22;99266.27;1708308;83;21002;-71
2022/02/21 07:26:42;;;;;;;7.25;5.37;;;;;;;4.93;61.24;99254.30;1701095;83;20166;-71
2022/02/21 07:29:08;;;;;;;8.93;6.50;;;;;;;4.97;60.97;99250.30;1716282;83;21626;-71
2022/02/21 07:31:35;;;;;;;10.30;5.33;;;;;;;5.07;60.31;99260.95;1708404;83;21065;-69
2022/02/21 07:34:01;;;;;;;12.82;5.85;;;;;;;5.15;60.27;99257.41;1693239;83;21116;-71
2022/02/21 07:36:28;;;;;;;8.75;5.60;;;;;;;5.14;59.30;99257.10;1670888;84;21049;-67
2022/02/21 07:40:44;;;;;;;6.40;5.30;;;;;;;5.23;59.06;99252.03;1787129;78;22040;-72
2022/02/21 07:43:11;;;;;;;9.73;6.17;;;;;;;5.23;58.80;99257.31;1754022;80;21799;-68
2022/02/21 07:45:37;;;;;;;9.18;5.33;;;;;;;5.32;58.78;99254.10;1734489;80;21568;-70
2022/02/21 07:48:04;;;;;;;8.10;5.25;;;;;;;5.35;58.44;99248.47;1731985;81;21205;-68
2022/02/21 07:50:33;;;;;;;8.20;4.77;;;;;;;5.37;58.33;99244.30;1692670;83;21049;-61
2022/02/21 07:53:02;;;;;;;7.37;5.37;;;;;;;5.36;58.27;99232.11;1673554;84;21008;-73
2022/02/21 07:55:28;;;;;;;7.37;5.43;;;;;;;5.36;58.07;99240.84;1671427;84;21023;-71
2022/02/21 07:57:57;;;;;;;11.00;5.10;;;;;;;5.39;58.17;99244.97;1700504;82;21638;-71
2022/02/21 08:00:23;;;;;;;7.73;4.90;;;;;;;5.41;57.86;99232.39;1700024;83;21177;-69
2022/02/21 08:02:50;;;;;;;8.95;4.58;;;;;;;5.49;57.62;99230.16;1697370;83;21580;-71
2022/02/21 08:05:17;;;;;;;8.20;5.40;;;;;;;5.54;57.49;99220.67;1705054;83;22210;-72
2022/02/21 08:07:44;;;;;;;7.10;5.50;;;;;;;5.57;57.32;99215.52;1699971;83;21137;-71
2022/02/21 08:10:11;;;;;;;6.83;4.53;;;;;;;5.72;56.70;99215.50;1705792;83;21112;-70
2022/02/21 08:12:39;;;;;;;6.30;5.17;;;;;;;5.83;56.36;99216.35;1705215;83;21616;-69
2022/02/21 08:15:07;;;;;;;9.63;5.15;;;;;;;5.91;56.02;99209.63;1705350;83;21057;-69
2022/02/21 08:17:43;;;;;;;6.47;4.53;;;;;;;6.04;55.83;99228.83;1714557;83;21577;-70
2022/02/21 08:20:11;;;;;;;10.80;5.23;;;;;;;6.11;55.05;99215.70;1707721;83;21074;-72
2022/02/21 08:22:37;;;;;;;6.70;4.63;;;;;;;6.15;54.54;99211.16;1699690;83;21652;-69
2022/02/21 08:25:05;;;;;;;9.28;4.30;;;;;;;6.20;54.54;99210.61;1687601;83;21042;-72
2022/02/21 08:27:41;;;;;;;7.77;4.73;;;;;;;6.24;54.55;99201.28;1686512;83;21605;-71
2022/02/21 08:30:16;;;;;;;8.20;5.20;;;;;;;6.31;54.48;99219.38;1672554;84;21132;-71
2022/02/21 08:32:43;;;;;;;7.67;4.27;;;;;;;6.36;53.86;99213.50;1687519;83;21057;-74
2022/02/21 08:35:11;;;;;;;;;;;;;;;6.38;53.54;99210.16;1689527;83;21082;-73
2022/02/21 08:37:39;;;;;;;8.57;4.43;;;;;;;6.36;53.72;99210.86;1685871;84;20212;-73
2022/02/21 08:40:08;;;;;;;5.97;3.93;;;;;;;6.29;54.04;99214.77;1675232;83;21081;-70
2022/02/21 08:42:36;;;;;;;6.20;4.00;;;;;;;6.30;54.03;99206.33;1676136;84;21061;-70
2022/02/21 08:45:08;;;;;;;6.27;4.17;;;;;;;6.30;53.70;99201.03;1676029;84;21005;-72
2022/02/21 08:47:35;;;;;;;9.33;4.40;;;;;;;6.27;53.84;99211.98;1678579;84;21025;-71
2022/02/21 08:50:03;;;;;;;7.53;4.25;;;;;;;6.37;53.74;99201.41;1676216;84;21059;-71
2022/02/21 08:52:32;;;;;;;3.57;2.83;;;;;;;6.48;52.93;99179.40;1687336;84;21101;-71
2022/02/21 08:54:58;;;;;;;6.53;4.60;;;;;;;6.62;52.77;99200.51;1683880;84;21083;-72
2022/02/21 08:57:27;;;;;;;;;;;;;;;6.72;52.53;99197.53;1680734;84;21013;-70
2022/02/21 08:59:53;;;;;;;5.03;3.65;;;;;;;6.76;52.42;99184.25;1672532;84;20110;-70
2022/02/21 09:02:19;;;;;;;7.75;3.83;;;;;;;6.81;52.41;99187.11;1648817;84;21038;-71
2022/02/21 09:04:47;;;;;;;5.55;4.10;;;;;;;6.90;52.03;99181.70;1654408;85;21126;-73
2022/02/21 09:07:14;;;;;;;6.97;4.00;;;;;;;7.01;51.91;99173.22;1648598;85;21120;-71
2022/02/21 09:09:40;;;;;;;9.80;5.00;;;;;;;7.09;51.43;99162.45;1648833;85;21057;-72
2022/02/21 09:12:07;;;;;;;6.33;3.85;;;;;;;7.12;51.10;99162.08;1646424;85;21108;-72
2022/02/21 09:14:33;;;;;;;8.40;4.10;;;;;;;7.16;51.05;99151.91;1676703;84;21073;-74
2022/02/21 09:16:59;;;;;;;9.33;4.30;;;;;;;7.16;51.02;99158.02;1685449;84;21018;-73
2022/02/21 09:19:25;;;;;;;5.25;4.20;;;;;;;6.92;50.68;99109.47;1678551;84;21057;-73
2022/02/21 09:21:51;;;;;;;5.58;3.30;;;;;;;7.25;50.83;99156.53;1680599;84;21044;-72
2022/02/21 09:24:17;;;;;;;5.78;3.98;;;;;;;7.29;50.38;99155.95;1680222;83;21060;-72
2022/02/21 09:26:43;;;;;;;7.15;4.53;;;;;;;7.30;50.27;99144.84;1652248;85;21062;-72
2022/02/21 09:29:09;;;;;;;10.63;4.58;;;;;;;7.34;50.19;99145.56;1642679;85;21073;-70
2022/02/21 09:31:36;;;;;;;6.40;4.40;;;;;;;7.37;49.95;99146.50;1674361;84;21023;-70
2022/02/21 09:34:02;;;;;;;11.63;4.47;;;;;;;7.44;50.27;99139.08;1685851;82;21006;-70
2022/02/21 09:36:30;;;;;;;8.30;3.70;;;;;;;7.48;50.07;99129.23;1704029;82;21054;-73
2022/02/21 09:38:56;;;;;;;9.33;4.03;;;;;;;7.43;49.65;99124.20;1704898;82;21074;-71
2022/02/21 09:41:22;;;;;;;6.30;3.70;;;;;;;7.45;49.86;99136.75;1700085;82;21097;-73
2022/02/21 09:43:48;;;;;;;6.95;3.85;;;;;;;7.49;50.04;99136.66;1711460;82;20991;-71
2022/02/21 09:46:15;;;;;;;5.97;3.75;;;;;;;7.54;49.61;99132.41;1693724;81;21061;-70
2022/02/21 09:48:42;;;;;;;6.53;3.52;;;;;;;7.59;49.79;99131.31;1695351;83;21653;-73
2022/02/21 09:51:08;;;;;;;4.70;3.80;;;;;;;7.56;49.39;99125.06;1701220;83;21507;-71
2022/02/21 09:53:38;;;;;;;7.17;3.70;;;;;;;7.53;49.17;99122.80;1685411;83;21061;-73
2022/02/21 09:56:06;;;;;;;6.37;4.33;;;;;;;7.56;49.33;99121.61;1697577;82;21058;-72
2022/02/21 09:58:33;;;;;;;7.97;4.10;;;;;;;7.59;49.33;99120.70;1694829;83;21096;-73
2022/02/21 10:01:00;;;;;;;15.03;3.50;;;;;;;7.59;49.23;99114.08;1696025;83;21018;-74
2022/02/21 10:03:44;;;;;;;;;;;;;;;7.60;48.81;99118.34;1673618;84;21025;-72
2022/02/21 10:06:26;;;;;;;7.20;4.00;;;;;;;7.63;48.94;99109.67;1699020;83;20505;-74
2022/02/21 10:09:10;;;;;;;8.73;3.23;;;;;;;7.61;49.07;99107.25;1695470;83;20967;-72
2022/02/21 10:11:45;;;;;;;6.67;3.50;;;;;;;7.65;48.96;99107.64;1694688;83;21051;-70
2022/02/21 10:14:24;;;;;;;4.63;3.27;;;;;;;7.68;48.83;99097.97;1697614;83;21490;-72
2022/02/21 10:16:53;;;;;;;4.93;3.40;;;;;;;7.71;48.74;99099.72;1685564;83;21016;-73
2022/02/21 10:19:29;;;;;;;5.30;3.03;;;;;;;7.77;48.70;99094.13;1695663;83;21050;-74
2022/02/21 10:22:11;;;;;;;5.63;2.73;;;;;;;7.81;48.42;99095.34;1704998;83;21026;-73
2022/02/21 10:24:48;;;;;;;5.93;2.80;;;;;;;7.86;48.21;99093.44;1697605;83;21522;-73
2022/02/21 10:27:20;;;;;;;6.35;3.12;;;;;;;7.91;48.31;99089.16;1702948;83;21022;-72
2022/02/21 10:30:04;;;;;;;9.53;3.77;;;;;;;7.92;48.06;99092.63;1689602;83;21527;-73
2022/02/21 10:32:35;;;;;;;9.27;3.87;;;;;;;7.85;48.22;99077.20;1698298;83;21211;-72
2022/02/21 10:35:23;;;;;;;9.73;3.47;;;;;;;7.77;48.54;99065.75;1695712;83;21022;-70
2022/02/21 10:38:01;;;;;;;6.00;4.03;;;;;;;7.81;48.64;99066.17;1690643;83;21489;-73
2022/02/21 10:40:37;;;;;;;5.27;3.60;;;;;;;7.78;48.33;99068.73;1696148;83;21075;-72
2022/02/21 10:43:09;;;;;;;8.70;3.83;;;;;;;7.76;48.74;99061.48;1699779;83;21012;-72
2022/02/21 10:45:38;;;;;;;7.03;4.07;;;;;;;7.85;48.70;99059.44;1673304;82;21542;-73
2022/02/21 10:48:12;;;;;;;13.03;3.27;;;;;;;7.87;48.63;99062.70;1667863;84;21095;-71
2022/02/21 10:50:57;;;;;;;8.47;3.23;;;;;;;7.92;48.42;99065.58;1658821;84;21148;-72
2022/02/21 10:53:26;;;;;;;3.73;2.90;;;;;;;7.89;48.64;99072.63;1656124;84;21487;-71
2022/02/21 10:55:54;;;;;;;8.33;3.50;;;;;;;7.84;48.53;99056.49;1652046;85;21029;-72
2022/02/21 10:58:26;;;;;;;6.27;2.83;;;;;;;7.83;48.70;99060.15;1675417;84;21056;-69
2022/02/21 11:00:55;;;;;;;11.00;3.10;;;;;;;7.83;48.92;99058.83;1707441;82;21050;-70
2022/02/21 11:03:24;;;;;;;9.50;3.10;;;;;;;7.89;49.03;99062.02;1718438;81;21007;-72
2022/02/21 11:05:53;;;;;;;5.83;4.00;;;;;;;7.91;48.78;99049.36;1716277;81;21502;-72
2022/02/21 11:08:21;;;;;;;4.37;2.67;;;;;;;7.95;48.69;99054.56;1713260;81;21018;-65
2022/02/21 11:10:58;;;;;;;3.23;2.70;;;;;;;7.99;48.68;99043.05;1709774;81;21125;-73
2022/02/21 11:13:28;;;;;;;7.20;2.72;;;;;;;8.06;48.73;99054.97;1716042;81;20983;-72
2022/02/21 11:15:54;;;;;;;10.43;3.57;;;;;;;8.09;48.42;99039.46;1714313;81;21096;-73
2022/02/21 11:18:22;;;;;;;8.80;3.80;;;;;;;8.07;48.37;99046.00;1718139;82;21069;-72
2022/02/21 11:20:51;;;;;;;13.70;3.53;;;;;;;8.01;48.77;99040.19;1716674;81;21131;-71
2022/02/21 11:23:17;;;;;;;5.97;3.87;;;;;;;7.95;48.85;99023.25;1726439;81;21107;-72
2022/02/21 11:26:14;;;;;;;14.37;3.03;;;;;;;7.97;48.80;99039.78;1718063;82;21041;-73
2022/02/21 11:28:57;;;;;;;9.17;3.33;;;;;;;7.96;49.07;99037.61;1713569;82;21041;-71
2022/02/21 11:31:32;;;;;;;7.13;3.60;;;;;;;7.97;49.08;99028.64;1706968;81;21031;-71
2022/02/21 11:34:05;;;;;;;8.43;2.60;;;;;;;8.02;49.15;99028.54;1716833;81;21089;-75
2022/02/21 11:36:33;;;;;;;6.07;3.37;;;;;;;8.03;49.13;99024.87;1705456;81;21020;-65
2022/02/21 11:39:20;;;;;;;3.40;2.30;;;;;;;8.04;49.25;99021.19;1710165;81;21502;-69
2022/02/21 11:42:08;;;;;;;5.47;2.67;;;;;;;8.01;49.45;99026.92;1715544;81;21105;-70
2022/02/21 11:44:50;;;;;;;5.57;3.23;;;;;;;7.99;49.46;99031.10;1710280;82;21880;-69
2022/02/21 11:47:41;;;;;;;4.90;2.80;;;;;;;7.92;49.76;99023.64;1693155;83;21435;-70